Charter Quote
Worldwide +44-20-3874-8091 Call
Select Language Lang
SAFETY RELIABILITY EXPERIENCE

Volkel Airport (EHVK) - Jet Charter Services

AIRPORT INFORMATION
ICAOEHVK
IATAUDE
LOCATIONVolkel, Netherlands
FACILITY TYPEAIRPORT
Runway Length (ft) Width (ft) Surface Type Elevation (ft)
24L/06R 9931 74 ASP 71.96721
24R/06L 9922 148 ASP 71.96721

At Paramount Business Jets you can hire chartered private jets to and from Volkel Airport with as little as 4 hours of notice. All flights booked via Paramount Business Jets are operated by certified direct air carriers that meet and exceed the FAA part 135 and 121 protocol or a foreign equivalent safety authority. Furthermore, Paramount Business Jets subscribes to ARGUS for their third party safety checks of operators, aircraft, and crews prior each and every flight to and from Volkel Airport and worldwide.

  • Quote a trip using Volkel Airport or call us 24/7 - 365 days a year at +44-20-3874-8091.
Questions? Call +44-20-3874-8091

METAR Weather Data at Volkel Airport, EHVK, UDE

STATIONEHVK
OBSERVEDFri Mar 22, 22:55 UTC
NOWFri Mar 22, 23:05 UTC
AGE10 min ago
WINDNW at 8 mph
VISIBILITY1 mile
CONDITIONSfog
CLOUDSovercast
TEMP43°F (6°C)
WIND CHILL38°F (3°C)
DEWPT43°F (6°C)
HUMIDITY100%
BAROMETER1027 hPa (30.33 in Hg)
METAREHVK 222255Z AUTO 31007KT 260V350 0650 FG OVC000 06/06 Q1027 RED

Call us on +44-20-3874-8091 (24 Hours) to Hire a Private Jet or Get a Quick Quote.

Find Airports Near any Location

Processing
...